sensor_id;sensor_type;location;lat;lon;timestamp;temperature;humidity
64937;SHT30;51452;47.698;19.050;2023-03-03T00:00:33;5.49;71.62
64937;SHT30;51452;47.698;19.050;2023-03-03T00:03:03;5.59;71.72
64937;SHT30;51452;47.698;19.050;2023-03-03T00:05:31;5.70;70.95
64937;SHT30;51452;47.698;19.050;2023-03-03T00:07:57;5.81;70.99
64937;SHT30;51452;47.698;19.050;2023-03-03T00:10:22;5.83;69.60
64937;SHT30;51452;47.698;19.050;2023-03-03T00:12:49;5.83;69.88
64937;SHT30;51452;47.698;19.050;2023-03-03T00:15:17;5.77;71.59
64937;SHT30;51452;47.698;19.050;2023-03-03T00:17:44;5.81;71.76
64937;SHT30;51452;47.698;19.050;2023-03-03T00:22:53;5.93;71.49
64937;SHT30;51452;47.698;19.050;2023-03-03T00:25:30;5.94;71.28
64937;SHT30;51452;47.698;19.050;2023-03-03T00:28:15;5.94;69.66
64937;SHT30;51452;47.698;19.050;2023-03-03T00:30:44;5.91;69.21
64937;SHT30;51452;47.698;19.050;2023-03-03T00:33:30;5.83;69.13
64937;SHT30;51452;47.698;19.050;2023-03-03T00:36:37;5.70;68.20
64937;SHT30;51452;47.698;19.050;2023-03-03T00:39:36;5.45;67.29
64937;SHT30;51452;47.698;19.050;2023-03-03T00:42:11;5.32;67.39
64937;SHT30;51452;47.698;19.050;2023-03-03T00:44:44;5.28;69.41
64937;SHT30;51452;47.698;19.050;2023-03-03T00:50:25;5.25;70.05
64937;SHT30;51452;47.698;19.050;2023-03-03T00:52:57;5.17;68.59
64937;SHT30;51452;47.698;19.050;2023-03-03T00:55:24;5.11;68.69
64937;SHT30;51452;47.698;19.050;2023-03-03T00:57:50;5.02;68.87
64937;SHT30;51452;47.698;19.050;2023-03-03T01:00:15;5.00;68.90
64937;SHT30;51452;47.698;19.050;2023-03-03T01:02:41;4.94;68.27
64937;SHT30;51452;47.698;19.050;2023-03-03T01:07:53;4.80;70.25
64937;SHT30;51452;47.698;19.050;2023-03-03T01:10:18;4.91;70.64
64937;SHT30;51452;47.698;19.050;2023-03-03T01:12:44;4.94;70.87
64937;SHT30;51452;47.698;19.050;2023-03-03T01:15:11;4.98;70.10
64937;SHT30;51452;47.698;19.050;2023-03-03T01:17:37;4.94;69.87
64937;SHT30;51452;47.698;19.050;2023-03-03T01:20:11;4.87;68.75
64937;SHT30;51452;47.698;19.050;2023-03-03T01:22:36;4.83;70.18
64937;SHT30;51452;47.698;19.050;2023-03-03T01:25:02;4.87;72.91
64937;SHT30;51452;47.698;19.050;2023-03-03T01:27:29;5.05;73.02
64937;SHT30;51452;47.698;19.050;2023-03-03T01:29:55;5.17;72.65
64937;SHT30;51452;47.698;19.050;2023-03-03T01:32:21;5.21;71.51
64937;SHT30;51452;47.698;19.050;2023-03-03T01:34:47;5.19;69.86
64937;SHT30;51452;47.698;19.050;2023-03-03T01:37:12;5.05;68.89
64937;SHT30;51452;47.698;19.050;2023-03-03T01:39:38;4.92;68.78
64937;SHT30;51452;47.698;19.050;2023-03-03T01:42:03;4.80;69.84
64937;SHT30;51452;47.698;19.050;2023-03-03T01:44:29;4.81;69.74
64937;SHT30;51452;47.698;19.050;2023-03-03T01:47:08;4.77;69.14
64937;SHT30;51452;47.698;19.050;2023-03-03T01:50:00;4.59;68.14
64937;SHT30;51452;47.698;19.050;2023-03-03T01:52:32;4.46;67.94
64937;SHT30;51452;47.698;19.050;2023-03-03T01:55:02;4.40;68.35
64937;SHT30;51452;47.698;19.050;2023-03-03T01:57:35;4.49;70.16
64937;SHT30;51452;47.698;19.050;2023-03-03T02:00:04;4.49;69.78
64937;SHT30;51452;47.698;19.050;2023-03-03T02:02:30;4.42;68.59
64937;SHT30;51452;47.698;19.050;2023-03-03T02:04:56;4.30;68.15
64937;SHT30;51452;47.698;19.050;2023-03-03T02:07:23;4.25;68.05
64937;SHT30;51452;47.698;19.050;2023-03-03T02:10:11;4.16;68.94
64937;SHT30;51452;47.698;19.050;2023-03-03T02:12:41;4.16;71.71
64937;SHT30;51452;47.698;19.050;2023-03-03T02:17:53;4.28;73.04
64937;SHT30;51452;47.698;19.050;2023-03-03T02:22:59;4.29;71.86
64937;SHT30;51452;47.698;19.050;2023-03-03T02:25:38;4.29;72.88
64937;SHT30;51452;47.698;19.050;2023-03-03T02:28:05;4.35;72.80
64937;SHT30;51452;47.698;19.050;2023-03-03T02:30:36;4.40;72.38
64937;SHT30;51452;47.698;19.050;2023-03-03T02:33:02;4.49;71.85
64937;SHT30;51452;47.698;19.050;2023-03-03T02:35:36;4.40;70.79
64937;SHT30;51452;47.698;19.050;2023-03-03T02:41:20;4.25;70.76
64937;SHT30;51452;47.698;19.050;2023-03-03T02:44:02;4.22;72.48
64937;SHT30;51452;47.698;19.050;2023-03-03T02:46:32;4.30;72.54
64937;SHT30;51452;47.698;19.050;2023-03-03T02:48:58;4.33;71.26
64937;SHT30;51452;47.698;19.050;2023-03-03T02:51:24;4.26;70.09
64937;SHT30;51452;47.698;19.050;2023-03-03T02:53:49;4.23;70.28
64937;SHT30;51452;47.698;19.050;2023-03-03T02:56:15;4.23;72.29
64937;SHT30;51452;47.698;19.050;2023-03-03T02:58:40;4.32;71.68
64937;SHT30;51452;47.698;19.050;2023-03-03T03:01:05;4.29;71.70
64937;SHT30;51452;47.698;19.050;2023-03-03T03:03:31;4.32;71.29
64937;SHT30;51452;47.698;19.050;2023-03-03T03:05:57;4.25;70.61
64937;SHT30;51452;47.698;19.050;2023-03-03T03:08:22;4.20;69.90
64937;SHT30;51452;47.698;19.050;2023-03-03T03:10:47;4.13;70.95
64937;SHT30;51452;47.698;19.050;2023-03-03T03:13:13;4.15;70.26
64937;SHT30;51452;47.698;19.050;2023-03-03T03:15:39;4.08;70.20
64937;SHT30;51452;47.698;19.050;2023-03-03T03:18:04;4.08;71.01
64937;SHT30;51452;47.698;19.050;2023-03-03T03:20:30;3.98;70.10
64937;SHT30;51452;47.698;19.050;2023-03-03T03:22:56;3.89;70.13
64937;SHT30;51452;47.698;19.050;2023-03-03T03:25:21;3.89;71.61
64937;SHT30;51452;47.698;19.050;2023-03-03T03:27:46;3.91;71.24
64937;SHT30;51452;47.698;19.050;2023-03-03T03:30:12;3.88;70.59
64937;SHT30;51452;47.698;19.050;2023-03-03T03:32:37;3.88;71.40
64937;SHT30;51452;47.698;19.050;2023-03-03T03:35:03;3.91;71.04
64937;SHT30;51452;47.698;19.050;2023-03-03T03:37:29;3.91;72.21
64937;SHT30;51452;47.698;19.050;2023-03-03T03:39:54;3.89;71.81
64937;SHT30;51452;47.698;19.050;2023-03-03T03:42:20;3.92;71.40
64937;SHT30;51452;47.698;19.050;2023-03-03T03:44:45;3.85;70.91
64937;SHT30;51452;47.698;19.050;2023-03-03T03:47:11;3.84;70.98
64937;SHT30;51452;47.698;19.050;2023-03-03T03:49:36;3.82;70.55
64937;SHT30;51452;47.698;19.050;2023-03-03T03:52:02;3.74;70.19
64937;SHT30;51452;47.698;19.050;2023-03-03T03:54:27;3.74;69.98
64937;SHT30;51452;47.698;19.050;2023-03-03T03:56:53;3.63;69.81
64937;SHT30;51452;47.698;19.050;2023-03-03T03:59:19;3.61;70.64
64937;SHT30;51452;47.698;19.050;2023-03-03T04:01:45;3.63;71.44
64937;SHT30;51452;47.698;19.050;2023-03-03T04:04:12;3.66;72.22
64937;SHT30;51452;47.698;19.050;2023-03-03T04:06:37;3.67;72.62
64937;SHT30;51452;47.698;19.050;2023-03-03T04:09:03;3.73;72.30
64937;SHT30;51452;47.698;19.050;2023-03-03T04:11:28;3.75;72.19
64937;SHT30;51452;47.698;19.050;2023-03-03T04:13:54;3.77;72.27
64937;SHT30;51452;47.698;19.050;2023-03-03T04:16:19;3.78;72.35
64937;SHT30;51452;47.698;19.050;2023-03-03T04:18:44;3.77;72.52
64937;SHT30;51452;47.698;19.050;2023-03-03T04:21:12;3.77;72.61
64937;SHT30;51452;47.698;19.050;2023-03-03T04:23:38;3.71;71.95
64937;SHT30;51452;47.698;19.050;2023-03-03T04:26:03;3.71;72.04
64937;SHT30;51452;47.698;19.050;2023-03-03T04:28:29;3.74;72.18
64937;SHT30;51452;47.698;19.050;2023-03-03T04:30:54;3.67;72.60
64937;SHT30;51452;47.698;19.050;2023-03-03T04:33:20;3.67;71.51
64937;SHT30;51452;47.698;19.050;2023-03-03T04:35:45;3.64;72.10
64937;SHT30;51452;47.698;19.050;2023-03-03T04:38:10;3.71;73.01
64937;SHT30;51452;47.698;19.050;2023-03-03T04:40:36;3.70;73.66
64937;SHT30;51452;47.698;19.050;2023-03-03T04:43:02;3.74;73.71
64937;SHT30;51452;47.698;19.050;2023-03-03T04:45:28;3.78;73.52
64937;SHT30;51452;47.698;19.050;2023-03-03T04:47:53;3.78;73.66
64937;SHT30;51452;47.698;19.050;2023-03-03T04:50:19;3.84;73.37
64937;SHT30;51452;47.698;19.050;2023-03-03T04:52:45;3.81;72.85
64937;SHT30;51452;47.698;19.050;2023-03-03T04:55:10;3.81;72.65
64937;SHT30;51452;47.698;19.050;2023-03-03T04:57:35;3.82;72.78
64937;SHT30;51452;47.698;19.050;2023-03-03T05:00:02;3.82;72.38
64937;SHT30;51452;47.698;19.050;2023-03-03T05:02:28;3.79;72.56
64937;SHT30;51452;47.698;19.050;2023-03-03T05:04:54;3.79;72.56
64937;SHT30;51452;47.698;19.050;2023-03-03T05:07:19;3.78;73.19
64937;SHT30;51452;47.698;19.050;2023-03-03T05:09:45;3.79;72.93
64937;SHT30;51452;47.698;19.050;2023-03-03T05:12:10;3.78;72.63
64937;SHT30;51452;47.698;19.050;2023-03-03T05:14:35;3.74;72.88
64937;SHT30;51452;47.698;19.050;2023-03-03T05:17:02;3.75;73.05
64937;SHT30;51452;47.698;19.050;2023-03-03T05:19:28;3.78;73.12
64937;SHT30;51452;47.698;19.050;2023-03-03T05:21:54;3.79;72.39
64937;SHT30;51452;47.698;19.050;2023-03-03T05:24:19;3.77;73.24
64937;SHT30;51452;47.698;19.050;2023-03-03T05:26:45;3.79;72.92
64937;SHT30;51452;47.698;19.050;2023-03-03T05:29:10;3.78;71.49
64937;SHT30;51452;47.698;19.050;2023-03-03T05:31:36;3.73;72.01
64937;SHT30;51452;47.698;19.050;2023-03-03T05:34:01;3.70;72.46
64937;SHT30;51452;47.698;19.050;2023-03-03T05:36:26;3.74;72.57
64937;SHT30;51452;47.698;19.050;2023-03-03T05:38:52;3.71;72.71
64937;SHT30;51452;47.698;19.050;2023-03-03T05:41:17;3.70;72.21
64937;SHT30;51452;47.698;19.050;2023-03-03T05:43:43;3.74;72.24
64937;SHT30;51452;47.698;19.050;2023-03-03T05:46:09;3.75;73.11
64937;SHT30;51452;47.698;19.050;2023-03-03T05:48:34;3.75;72.23
64937;SHT30;51452;47.698;19.050;2023-03-03T05:51:00;3.75;71.31
64937;SHT30;51452;47.698;19.050;2023-03-03T05:53:27;3.66;71.34
64937;SHT30;51452;47.698;19.050;2023-03-03T05:55:53;3.60;71.51
64937;SHT30;51452;47.698;19.050;2023-03-03T05:58:18;3.64;72.34
64937;SHT30;51452;47.698;19.050;2023-03-03T06:00:43;3.71;72.86
64937;SHT30;51452;47.698;19.050;2023-03-03T06:03:09;3.74;72.58
64937;SHT30;51452;47.698;19.050;2023-03-03T06:05:34;3.73;72.34
64937;SHT30;51452;47.698;19.050;2023-03-03T06:08:00;3.78;72.90
64937;SHT30;51452;47.698;19.050;2023-03-03T06:10:25;3.87;73.45
64937;SHT30;51452;47.698;19.050;2023-03-03T06:12:51;3.89;73.77
64937;SHT30;51452;47.698;19.050;2023-03-03T06:15:16;3.89;72.73
64937;SHT30;51452;47.698;19.050;2023-03-03T06:17:42;3.89;71.86
64937;SHT30;51452;47.698;19.050;2023-03-03T06:20:08;3.92;72.30
64937;SHT30;51452;47.698;19.050;2023-03-03T06:22:33;3.91;72.09
64937;SHT30;51452;47.698;19.050;2023-03-03T06:24:59;3.95;72.69
64937;SHT30;51452;47.698;19.050;2023-03-03T06:27:24;4.02;73.22
64937;SHT30;51452;47.698;19.050;2023-03-03T06:29:50;4.05;72.89
64937;SHT30;51452;47.698;19.050;2023-03-03T06:32:15;4.03;72.67
64937;SHT30;51452;47.698;19.050;2023-03-03T06:34:41;4.06;72.58
64937;SHT30;51452;47.698;19.050;2023-03-03T06:37:06;4.05;73.00
64937;SHT30;51452;47.698;19.050;2023-03-03T06:39:32;4.06;72.99
64937;SHT30;51452;47.698;19.050;2023-03-03T06:41:57;4.09;74.75
64937;SHT30;51452;47.698;19.050;2023-03-03T06:44:23;4.18;74.01
64937;SHT30;51452;47.698;19.050;2023-03-03T06:46:48;4.10;74.02
64937;SHT30;51452;47.698;19.050;2023-03-03T06:49:14;4.19;73.78
64937;SHT30;51452;47.698;19.050;2023-03-03T06:51:39;4.23;73.78
64937;SHT30;51452;47.698;19.050;2023-03-03T06:54:18;4.20;74.84
64937;SHT30;51452;47.698;19.050;2023-03-03T06:56:44;4.33;74.33
64937;SHT30;51452;47.698;19.050;2023-03-03T06:59:15;4.39;74.65
64937;SHT30;51452;47.698;19.050;2023-03-03T07:01:41;4.50;74.76
64937;SHT30;51452;47.698;19.050;2023-03-03T07:04:14;4.53;74.82
64937;SHT30;51452;47.698;19.050;2023-03-03T07:06:40;4.61;74.38
64937;SHT30;51452;47.698;19.050;2023-03-03T07:09:26;4.69;74.31
64937;SHT30;51452;47.698;19.050;2023-03-03T07:12:05;4.70;74.83
64937;SHT30;51452;47.698;19.050;2023-03-03T07:14:38;4.83;74.70
64937;SHT30;51452;47.698;19.050;2023-03-03T07:17:14;4.92;74.04
64937;SHT30;51452;47.698;19.050;2023-03-03T07:19:40;5.00;73.58
64937;SHT30;51452;47.698;19.050;2023-03-03T07:24:38;5.17;73.75
64937;SHT30;51452;47.698;19.050;2023-03-03T07:29:38;5.32;73.99
64937;SHT30;51452;47.698;19.050;2023-03-03T07:34:55;5.48;74.40
64937;SHT30;51452;47.698;19.050;2023-03-03T07:37:36;5.52;74.28
64937;SHT30;51452;47.698;19.050;2023-03-03T07:40:41;5.58;74.32
64937;SHT30;51452;47.698;19.050;2023-03-03T07:45:48;5.63;73.17
64937;SHT30;51452;47.698;19.050;2023-03-03T07:48:24;5.63;73.09
64937;SHT30;51452;47.698;19.050;2023-03-03T07:50:50;5.60;72.86
64937;SHT30;51452;47.698;19.050;2023-03-03T07:55:48;5.67;73.01
64937;SHT30;51452;47.698;19.050;2023-03-03T07:58:19;5.85;72.52
64937;SHT30;51452;47.698;19.050;2023-03-03T08:01:35;5.87;72.41
64937;SHT30;51452;47.698;19.050;2023-03-03T08:03:42;6.00;73.19
64937;SHT30;51452;47.698;19.050;2023-03-03T08:09:02;6.06;72.84
64937;SHT30;51452;47.698;19.050;2023-03-03T08:11:53;6.13;72.81
64937;SHT30;51452;47.698;19.050;2023-03-03T08:14:30;6.17;72.28
64937;SHT30;51452;47.698;19.050;2023-03-03T08:16:57;6.25;72.15
64937;SHT30;51452;47.698;19.050;2023-03-03T08:19:24;6.27;72.88
64937;SHT30;51452;47.698;19.050;2023-03-03T08:21:50;6.31;72.96
64937;SHT30;51452;47.698;19.050;2023-03-03T08:24:17;6.45;72.81
64937;SHT30;51452;47.698;19.050;2023-03-03T08:26:42;6.53;72.74
64937;SHT30;51452;47.698;19.050;2023-03-03T08:29:09;6.58;72.59
64937;SHT30;51452;47.698;19.050;2023-03-03T08:31:36;6.67;72.37
64937;SHT30;51452;47.698;19.050;2023-03-03T08:34:01;6.71;71.85
64937;SHT30;51452;47.698;19.050;2023-03-03T08:36:27;6.76;71.38
64937;SHT30;51452;47.698;19.050;2023-03-03T08:38:53;6.72;71.33
64937;SHT30;51452;47.698;19.050;2023-03-03T08:41:18;6.78;70.57
64937;SHT30;51452;47.698;19.050;2023-03-03T08:43:43;6.85;70.69
64937;SHT30;51452;47.698;19.050;2023-03-03T08:46:09;6.88;70.34
64937;SHT30;51452;47.698;19.050;2023-03-03T08:48:36;6.89;70.31
64937;SHT30;51452;47.698;19.050;2023-03-03T08:51:02;6.95;69.80
64937;SHT30;51452;47.698;19.050;2023-03-03T08:53:28;6.95;69.78
64937;SHT30;51452;47.698;19.050;2023-03-03T08:55:53;6.96;69.81
64937;SHT30;51452;47.698;19.050;2023-03-03T08:58:19;6.99;69.54
64937;SHT30;51452;47.698;19.050;2023-03-03T09:00:45;7.07;69.02
64937;SHT30;51452;47.698;19.050;2023-03-03T09:03:11;7.10;69.57
64937;SHT30;51452;47.698;19.050;2023-03-03T09:05:38;7.16;69.06
64937;SHT30;51452;47.698;19.050;2023-03-03T09:08:04;7.19;69.06
64937;SHT30;51452;47.698;19.050;2023-03-03T09:10:30;7.27;68.75
64937;SHT30;51452;47.698;19.050;2023-03-03T09:12:57;7.41;68.90
64937;SHT30;51452;47.698;19.050;2023-03-03T09:15:30;7.48;68.60
64937;SHT30;51452;47.698;19.050;2023-03-03T09:20:47;7.72;68.76
64937;SHT30;51452;47.698;19.050;2023-03-03T09:25:48;7.91;68.42
64937;SHT30;51452;47.698;19.050;2023-03-03T09:28:30;7.99;68.45
64937;SHT30;51452;47.698;19.050;2023-03-03T09:31:01;8.16;68.33
64937;SHT30;51452;47.698;19.050;2023-03-03T09:38:51;8.65;67.83
64937;SHT30;51452;47.698;19.050;2023-03-03T09:44:34;8.83;67.34
64937;SHT30;51452;47.698;19.050;2023-03-03T09:47:29;8.92;67.74
64937;SHT30;51452;47.698;19.050;2023-03-03T10:01:16;9.93;64.92
64937;SHT30;51452;47.698;19.050;2023-03-03T10:06:32;10.20;64.70
64937;SHT30;51452;47.698;19.050;2023-03-03T10:31:26;10.42;60.44
64937;SHT30;51452;47.698;19.050;2023-03-03T10:36:33;10.59;60.57
64937;SHT30;51452;47.698;19.050;2023-03-03T11:00:30;10.86;56.30
64937;SHT30;51452;47.698;19.050;2023-03-03T11:03:37;10.69;56.32
64937;SHT30;51452;47.698;19.050;2023-03-03T11:06:13;10.66;56.61
64937;SHT30;51452;47.698;19.050;2023-03-03T11:08:53;10.64;56.86
64937;SHT30;51452;47.698;19.050;2023-03-03T11:12:29;10.66;56.69
64937;SHT30;51452;47.698;19.050;2023-03-03T11:14:44;10.69;56.63
64937;SHT30;51452;47.698;19.050;2023-03-03T11:17:25;10.68;56.55
64937;SHT30;51452;47.698;19.050;2023-03-03T11:20:15;10.58;56.55
64937;SHT30;51452;47.698;19.050;2023-03-03T11:23:25;10.48;56.77
64937;SHT30;51452;47.698;19.050;2023-03-03T11:26:07;10.40;57.25
64937;SHT30;51452;47.698;19.050;2023-03-03T11:34:25;10.33;56.28
64937;SHT30;51452;47.698;19.050;2023-03-03T11:37:00;10.38;56.50
64937;SHT30;51452;47.698;19.050;2023-03-03T11:39:27;10.40;56.82
64937;SHT30;51452;47.698;19.050;2023-03-03T11:44:40;10.64;57.31
64937;SHT30;51452;47.698;19.050;2023-03-03T11:54:56;11.40;53.71
64937;SHT30;51452;47.698;19.050;2023-03-03T11:58:12;11.28;53.55
64937;SHT30;51452;47.698;19.050;2023-03-03T12:01:29;11.33;53.36
64937;SHT30;51452;47.698;19.050;2023-03-03T12:03:40;11.45;51.02
64937;SHT30;51452;47.698;19.050;2023-03-03T12:06:32;11.58;51.70
64937;SHT30;51452;47.698;19.050;2023-03-03T12:09:32;11.75;50.83
64937;SHT30;51452;47.698;19.050;2023-03-03T12:25:38;11.95;47.89
64937;SHT30;51452;47.698;19.050;2023-03-03T12:28:24;11.98;45.12
64937;SHT30;51452;47.698;19.050;2023-03-03T12:39:17;12.06;48.15
64937;SHT30;51452;47.698;19.050;2023-03-03T12:42:05;12.09;48.58
64937;SHT30;51452;47.698;19.050;2023-03-03T12:44:41;12.19;48.58
64937;SHT30;51452;47.698;19.050;2023-03-03T12:47:28;12.25;47.78
64937;SHT30;51452;47.698;19.050;2023-03-03T12:50:26;12.28;46.34
64937;SHT30;51452;47.698;19.050;2023-03-03T12:56:07;12.33;47.82
64937;SHT30;51452;47.698;19.050;2023-03-03T12:58:59;12.28;48.16
64937;SHT30;51452;47.698;19.050;2023-03-03T13:04:22;12.30;47.05
64937;SHT30;51452;47.698;19.050;2023-03-03T13:12:30;11.98;48.86
64937;SHT30;51452;47.698;19.050;2023-03-03T13:20:33;11.96;50.01
64937;SHT30;51452;47.698;19.050;2023-03-03T13:23:09;11.95;50.22
64937;SHT30;51452;47.698;19.050;2023-03-03T13:25:52;11.84;50.29
64937;SHT30;51452;47.698;19.050;2023-03-03T13:28:30;11.82;49.86
64937;SHT30;51452;47.698;19.050;2023-03-03T13:31:06;11.84;50.09
64937;SHT30;51452;47.698;19.050;2023-03-03T13:33:36;11.89;50.24
64937;SHT30;51452;47.698;19.050;2023-03-03T13:36:10;11.85;49.59
64937;SHT30;51452;47.698;19.050;2023-03-03T13:38:41;11.77;49.36
64937;SHT30;51452;47.698;19.050;2023-03-03T13:41:27;11.79;50.30
64937;SHT30;51452;47.698;19.050;2023-03-03T13:44:10;11.77;49.75
64937;SHT30;51452;47.698;19.050;2023-03-03T13:46:41;11.79;49.61
64937;SHT30;51452;47.698;19.050;2023-03-03T13:52:20;11.70;50.67
64937;SHT30;51452;47.698;19.050;2023-03-03T14:05:48;11.31;49.93
64937;SHT30;51452;47.698;19.050;2023-03-03T14:19:37;11.22;49.75
64937;SHT30;51452;47.698;19.050;2023-03-03T14:22:05;11.19;50.26
64937;SHT30;51452;47.698;19.050;2023-03-03T14:27:24;11.10;50.36
64937;SHT30;51452;47.698;19.050;2023-03-03T14:29:50;11.20;50.30
64937;SHT30;51452;47.698;19.050;2023-03-03T14:32:26;11.23;49.77
64937;SHT30;51452;47.698;19.050;2023-03-03T14:35:00;11.30;49.97
64937;SHT30;51452;47.698;19.050;2023-03-03T14:37:43;11.22;50.01
64937;SHT30;51452;47.698;19.050;2023-03-03T14:40:14;11.28;49.93
64937;SHT30;51452;47.698;19.050;2023-03-03T14:45:36;11.16;50.56
64937;SHT30;51452;47.698;19.050;2023-03-03T14:48:15;11.16;50.81
64937;SHT30;51452;47.698;19.050;2023-03-03T14:50:50;11.03;51.32
64937;SHT30;51452;47.698;19.050;2023-03-03T14:55:44;11.06;51.16
64937;SHT30;51452;47.698;19.050;2023-03-03T14:58:39;10.97;50.85
64937;SHT30;51452;47.698;19.050;2023-03-03T15:01:19;11.12;50.58
64937;SHT30;51452;47.698;19.050;2023-03-03T15:04:04;11.10;49.79
64937;SHT30;51452;47.698;19.050;2023-03-03T15:06:45;11.07;49.55
64937;SHT30;51452;47.698;19.050;2023-03-03T15:09:33;11.09;49.50
64937;SHT30;51452;47.698;19.050;2023-03-03T15:17:38;11.19;48.86
64937;SHT30;51452;47.698;19.050;2023-03-03T15:23:23;11.20;48.77
64937;SHT30;51452;47.698;19.050;2023-03-03T15:52:56;10.62;48.35
64937;SHT30;51452;47.698;19.050;2023-03-03T16:03:45;10.46;47.72
64937;SHT30;51452;47.698;19.050;2023-03-03T16:06:23;10.44;47.92
64937;SHT30;51452;47.698;19.050;2023-03-03T16:11:44;10.28;47.74
64937;SHT30;51452;47.698;19.050;2023-03-03T16:25:16;9.82;49.94
64937;SHT30;51452;47.698;19.050;2023-03-03T16:28:08;9.53;50.32
64937;SHT30;51452;47.698;19.050;2023-03-03T16:30:59;9.40;51.15
64937;SHT30;51452;47.698;19.050;2023-03-03T16:33:39;9.14;51.63
64937;SHT30;51452;47.698;19.050;2023-03-03T16:38:44;8.70;53.29
64937;SHT30;51452;47.698;19.050;2023-03-03T16:41:20;8.68;53.33
64937;SHT30;51452;47.698;19.050;2023-03-03T16:44:13;8.60;53.52
64937;SHT30;51452;47.698;19.050;2023-03-03T16:46:47;8.59;53.28
64937;SHT30;51452;47.698;19.050;2023-03-03T16:54:38;8.23;54.45
64937;SHT30;51452;47.698;19.050;2023-03-03T16:57:18;8.25;54.60
64937;SHT30;51452;47.698;19.050;2023-03-03T17:06:05;8.16;54.66
64937;SHT30;51452;47.698;19.050;2023-03-03T17:11:52;8.07;54.94
64937;SHT30;51452;47.698;19.050;2023-03-03T17:36:14;7.61;56.08
64937;SHT30;51452;47.698;19.050;2023-03-03T17:46:52;7.54;56.73
64937;SHT30;51452;47.698;19.050;2023-03-03T17:58:03;7.38;56.97
64937;SHT30;51452;47.698;19.050;2023-03-03T18:14:31;7.30;57.13
64937;SHT30;51452;47.698;19.050;2023-03-03T18:20:34;7.17;57.11
64937;SHT30;51452;47.698;19.050;2023-03-03T18:23:27;7.13;57.31
64937;SHT30;51452;47.698;19.050;2023-03-03T18:32:19;7.28;55.34
64937;SHT30;51452;47.698;19.050;2023-03-03T18:34:47;7.38;55.25
64937;SHT30;51452;47.698;19.050;2023-03-03T18:42:43;7.44;54.43
64937;SHT30;51452;47.698;19.050;2023-03-03T18:53:27;7.64;53.07
64937;SHT30;51452;47.698;19.050;2023-03-03T18:55:59;7.68;52.98
64937;SHT30;51452;47.698;19.050;2023-03-03T18:58:38;7.72;52.86
64937;SHT30;51452;47.698;19.050;2023-03-03T19:04:11;7.75;52.41
64937;SHT30;51452;47.698;19.050;2023-03-03T19:09:18;7.79;52.21
64937;SHT30;51452;47.698;19.050;2023-03-03T19:11:53;7.77;52.53
64937;SHT30;51452;47.698;19.050;2023-03-03T19:16:55;7.72;52.48
64937;SHT30;51452;47.698;19.050;2023-03-03T19:19:28;7.79;52.34
64937;SHT30;51452;47.698;19.050;2023-03-03T19:27:48;7.75;52.17
64937;SHT30;51452;47.698;19.050;2023-03-03T19:30:39;7.68;52.12
64937;SHT30;51452;47.698;19.050;2023-03-03T19:41:01;7.75;50.86
64937;SHT30;51452;47.698;19.050;2023-03-03T19:46:34;7.77;50.23
64937;SHT30;51452;47.698;19.050;2023-03-03T19:49:23;7.74;50.16
64937;SHT30;51452;47.698;19.050;2023-03-03T19:51:55;7.75;50.02
64937;SHT30;51452;47.698;19.050;2023-03-03T19:57:31;7.72;50.41
64937;SHT30;51452;47.698;19.050;2023-03-03T20:00:18;7.77;50.05
64937;SHT30;51452;47.698;19.050;2023-03-03T20:15:51;7.64;51.42
64937;SHT30;51452;47.698;19.050;2023-03-03T20:18:38;7.52;51.91
64937;SHT30;51452;47.698;19.050;2023-03-03T20:21:26;7.30;52.47
64937;SHT30;51452;47.698;19.050;2023-03-03T20:24:16;7.10;52.98
64937;SHT30;51452;47.698;19.050;2023-03-03T20:44:07;6.35;55.78
64937;SHT30;51452;47.698;19.050;2023-03-03T21:08:44;5.81;57.56
64937;SHT30;51452;47.698;19.050;2023-03-03T21:11:13;5.80;57.45
64937;SHT30;51452;47.698;19.050;2023-03-03T21:13:48;5.90;57.32
64937;SHT30;51452;47.698;19.050;2023-03-03T21:21:24;5.87;57.27
64937;SHT30;51452;47.698;19.050;2023-03-03T21:23:50;5.96;57.00
64937;SHT30;51452;47.698;19.050;2023-03-03T21:26:49;5.99;56.84
64937;SHT30;51452;47.698;19.050;2023-03-03T21:29:28;6.04;56.92
64937;SHT30;51452;47.698;19.050;2023-03-03T21:31:58;6.03;56.68
64937;SHT30;51452;47.698;19.050;2023-03-03T21:34:28;6.00;57.10
64937;SHT30;51452;47.698;19.050;2023-03-03T21:36:55;5.90;57.58
64937;SHT30;51452;47.698;19.050;2023-03-03T21:39:27;5.90;57.77
64937;SHT30;51452;47.698;19.050;2023-03-03T21:41:57;5.81;57.48
64937;SHT30;51452;47.698;19.050;2023-03-03T21:44:33;5.85;57.69
64937;SHT30;51452;47.698;19.050;2023-03-03T21:46:59;5.81;57.81
64937;SHT30;51452;47.698;19.050;2023-03-03T21:49:25;5.76;57.69
64937;SHT30;51452;47.698;19.050;2023-03-03T21:51:51;5.62;57.54
64937;SHT30;51452;47.698;19.050;2023-03-03T21:54:16;5.45;58.13
64937;SHT30;51452;47.698;19.050;2023-03-03T21:56:42;5.36;58.48
64937;SHT30;51452;47.698;19.050;2023-03-03T21:59:07;5.34;58.52
64937;SHT30;51452;47.698;19.050;2023-03-03T22:01:33;5.31;58.90
64937;SHT30;51452;47.698;19.050;2023-03-03T22:03:59;5.34;59.22
64937;SHT30;51452;47.698;19.050;2023-03-03T22:06:25;5.36;58.73
64937;SHT30;51452;47.698;19.050;2023-03-03T22:08:51;5.36;58.79
64937;SHT30;51452;47.698;19.050;2023-03-03T22:11:16;5.38;59.33
64937;SHT30;51452;47.698;19.050;2023-03-03T22:13:41;5.36;58.78
64937;SHT30;51452;47.698;19.050;2023-03-03T22:16:07;5.38;58.63
64937;SHT30;51452;47.698;19.050;2023-03-03T22:18:33;5.34;58.91
64937;SHT30;51452;47.698;19.050;2023-03-03T22:20:58;5.25;58.70
64937;SHT30;51452;47.698;19.050;2023-03-03T22:23:24;5.28;58.77
64937;SHT30;51452;47.698;19.050;2023-03-03T22:25:49;5.27;58.74
64937;SHT30;51452;47.698;19.050;2023-03-03T22:28:15;5.31;58.85
64937;SHT30;51452;47.698;19.050;2023-03-03T22:30:40;5.32;58.98
64937;SHT30;51452;47.698;19.050;2023-03-03T22:33:05;5.29;59.02
64937;SHT30;51452;47.698;19.050;2023-03-03T22:35:31;5.31;59.19
64937;SHT30;51452;47.698;19.050;2023-03-03T22:37:56;5.25;59.11
64937;SHT30;51452;47.698;19.050;2023-03-03T22:40:22;5.18;58.73
64937;SHT30;51452;47.698;19.050;2023-03-03T22:42:47;5.08;59.10
64937;SHT30;51452;47.698;19.050;2023-03-03T22:45:13;5.04;59.04
64937;SHT30;51452;47.698;19.050;2023-03-03T22:47:39;4.92;59.64
64937;SHT30;51452;47.698;19.050;2023-03-03T22:50:05;4.85;60.00
64937;SHT30;51452;47.698;19.050;2023-03-03T22:52:31;4.81;60.06
64937;SHT30;51452;47.698;19.050;2023-03-03T22:54:56;4.81;59.94
64937;SHT30;51452;47.698;19.050;2023-03-03T22:57:23;4.87;59.81
64937;SHT30;51452;47.698;19.050;2023-03-03T22:59:49;4.92;59.83
64937;SHT30;51452;47.698;19.050;2023-03-03T23:02:14;4.95;59.62
64937;SHT30;51452;47.698;19.050;2023-03-03T23:04:40;4.92;59.02